Time;durP1;ratioP1;P1;durP2;ratioP2;P2;SDS_P1;SDS_P2;PMS_P1;PMS_P2;Temp;Humidity;BMP_temperature;BMP_pressure;BME280_temperature;BME280_humidity;BME280_pressure;Samples;Min_cycle;Max_cycle;Signal;HPM_P1;HPM_P2
2021/12/11 00:00:41;;;;;;;3.63;0.73;;;3.40;99.90;;;;;;4900975;29;20412;-77
2021/12/11 00:03:17;;;;;;;3.20;1.03;;;3.50;99.90;;;;;;4877649;29;20485;-75
2021/12/11 00:05:47;;;;;;;1.23;0.97;;;3.50;99.90;;;;;;4899060;29;20426;-77
2021/12/11 00:08:17;;;;;;;1.80;0.83;;;3.50;99.90;;;;;;4897896;29;20402;-76
2021/12/11 00:10:47;;;;;;;1.50;0.80;;;3.50;99.90;;;;;;4899321;29;20417;-76
2021/12/11 00:13:22;;;;;;;3.33;1.00;;;3.50;99.90;;;;;;4897451;29;20555;-77
2021/12/11 00:15:48;;;;;;;2.70;0.87;;;3.50;99.90;;;;;;4897462;29;20435;-77
2021/12/11 00:18:21;;;;;;;1.53;0.70;;;3.50;99.90;;;;;;4897250;29;20498;-77
2021/12/11 00:20:58;;;;;;;2.00;1.13;;;3.50;99.90;;;;;;4897573;29;20498;-76
2021/12/11 00:23:32;;;;;;;2.47;0.93;;;3.50;99.90;;;;;;4897345;29;20907;-76
2021/12/11 00:25:57;;;;;;;2.00;1.20;;;3.50;99.90;;;;;;4897592;29;20455;-78
2021/12/11 00:28:24;;;;;;;1.20;1.10;;;3.50;99.90;;;;;;4897191;29;21121;-78
2021/12/11 00:30:50;;;;;;;1.73;1.00;;;3.60;99.90;;;;;;4898706;29;20182;-77
2021/12/11 00:33:26;;;;;;;1.67;1.27;;;3.60;99.90;;;;;;4898735;29;20434;-77
2021/12/11 00:35:55;;;;;;;2.20;1.50;;;3.50;99.90;;;;;;4899092;29;20648;-77
2021/12/11 00:38:25;;;;;;;3.50;2.13;;;3.30;99.90;;;;;;4898583;29;20558;-77
2021/12/11 00:40:53;;;;;;;3.47;1.90;;;3.20;99.90;;;;;;4898870;29;20729;-77
2021/12/11 00:43:27;;;;;;;2.17;1.50;;;3.10;99.90;;;;;;4898681;29;20948;-77
2021/12/11 00:45:54;;;;;;;2.50;1.20;;;2.90;99.90;;;;;;4899582;29;20419;-78
2021/12/11 00:48:22;;;;;;;1.60;1.50;;;2.80;99.90;;;;;;4899758;29;20402;-78
2021/12/11 00:50:51;;;;;;;4.33;1.33;;;2.80;99.90;;;;;;4899180;29;20813;-77
2021/12/11 00:53:25;;;;;;;2.90;1.50;;;2.70;99.90;;;;;;4898639;29;20426;-78
2021/12/11 00:55:54;;;;;;;4.70;1.47;;;2.70;99.90;;;;;;4899150;29;20897;-78
2021/12/11 00:58:29;;;;;;;1.57;1.40;;;2.70;99.90;;;;;;4898874;29;20536;-77
2021/12/11 05:30:47;;;;;;;7.30;6.63;;;2.50;99.90;;;;;;5881998;23;20401;-76
2021/12/11 05:33:15;;;;;;;6.97;6.40;;;2.50;99.90;;;;;;4874987;29;20434;-76
2021/12/11 05:35:41;;;;;;;7.00;6.40;;;2.50;99.90;;;;;;4878954;29;20944;-76
2021/12/11 05:38:10;;;;;;;6.90;6.03;;;2.50;99.90;;;;;;4878306;29;20475;-75
2021/12/11 05:40:40;;;;;;;8.43;6.23;;;2.50;99.90;;;;;;4878441;29;20461;-74
2021/12/11 05:43:07;;;;;;;7.47;6.77;;;2.50;99.90;;;;;;4877736;29;20565;-77
2021/12/11 05:45:33;;;;;;;7.70;6.90;;;2.50;99.90;;;;;;4877558;29;20486;-78
2021/12/11 05:47:59;;;;;;;7.47;6.77;;;2.50;99.90;;;;;;4878021;29;20961;-76
2021/12/11 05:50:34;;;;;;;8.00;7.30;;;2.50;99.90;;;;;;4878372;29;20648;-77
2021/12/11 05:53:02;;;;;;;7.67;6.97;;;2.50;99.90;;;;;;4875745;29;20442;-75
2021/12/11 05:55:30;;;;;;;7.87;7.17;;;2.40;99.90;;;;;;4878015;29;20477;-77
2021/12/11 05:57:58;;;;;;;8.37;7.47;;;2.50;99.90;;;;;;4878304;29;20499;-77
2021/12/11 06:00:31;;;;;;;7.87;6.53;;;2.50;99.90;;;;;;4879603;29;20420;-82
2021/12/11 06:02:58;;;;;;;8.60;6.90;;;2.50;99.90;;;;;;4878493;29;20421;-83
2021/12/11 06:05:23;;;;;;;7.60;6.77;;;2.50;99.90;;;;;;4879330;29;20401;-81
2021/12/11 06:07:49;;;;;;;7.77;6.97;;;2.50;99.90;;;;;;4879277;29;20417;-80
2021/12/11 06:10:18;;;;;;;8.07;7.17;;;2.60;99.90;;;;;;4879915;29;20194;-82
2021/12/11 06:12:45;;;;;;;9.57;8.00;;;2.50;99.90;;;;;;4879637;29;20187;-82
2021/12/11 06:15:10;;;;;;;10.60;8.20;;;2.50;99.90;;;;;;4879881;29;20394;-82
2021/12/11 06:17:36;;;;;;;8.90;7.17;;;2.50;99.90;;;;;;4880805;29;20414;-82
2021/12/11 06:20:05;;;;;;;8.80;8.00;;;2.50;99.90;;;;;;4880248;29;20189;-81
2021/12/11 06:22:34;;;;;;;9.33;8.43;;;2.50;99.90;;;;;;4879738;29;20210;-82
2021/12/11 06:25:05;;;;;;;11.77;8.80;;;2.50;99.90;;;;;;4879124;29;20901;-84
2021/12/11 06:27:30;;;;;;;10.97;9.10;;;2.50;99.90;;;;;;4880307;29;20784;-82
2021/12/11 06:29:56;;;;;;;12.37;11.13;;;2.50;99.90;;;;;;4879397;29;20424;-78
2021/12/11 06:32:23;;;;;;;10.97;9.17;;;2.50;99.90;;;;;;4879195;29;20313;-78
2021/12/11 06:34:50;;;;;;;12.50;10.50;;;2.50;99.90;;;;;;4878759;29;20196;-78
2021/12/11 06:37:16;;;;;;;14.47;10.27;;;2.50;99.90;;;;;;4879663;29;20923;-81
2021/12/11 06:39:42;;;;;;;15.63;11.13;;;2.60;99.90;;;;;;4879916;29;20889;-81
2021/12/11 06:42:09;;;;;;;13.53;9.90;;;2.60;99.90;;;;;;4878635;29;20444;-81
2021/12/11 06:44:36;;;;;;;12.67;10.80;;;2.60;99.90;;;;;;4879627;29;20178;-82
2021/12/11 06:47:05;;;;;;;14.07;12.27;;;2.70;99.90;;;;;;4879863;29;20429;-82
2021/12/11 06:49:34;;;;;;;14.63;11.00;;;2.60;99.90;;;;;;4880619;29;20452;-82
2021/12/11 06:52:00;;;;;;;14.83;10.53;;;2.60;99.90;;;;;;4880229;29;20847;-84
2021/12/11 06:54:26;;;;;;;11.97;10.17;;;2.60;99.90;;;;;;4880988;29;20523;-82
2021/12/11 06:56:53;;;;;;;11.03;9.43;;;2.60;99.90;;;;;;4881464;29;20452;-81
2021/12/11 06:59:19;;;;;;;12.60;10.37;;;2.60;99.90;;;;;;4881860;29;20470;-81
2021/12/11 07:01:44;;;;;;;10.80;9.67;;;2.60;99.90;;;;;;4879132;29;20445;-81
2021/12/11 07:04:11;;;;;;;12.80;10.30;;;2.60;99.90;;;;;;4878242;29;20425;-82
2021/12/11 07:06:42;;;;;;;14.53;9.27;;;2.60;99.90;;;;;;4878151;29;20177;-74
2021/12/11 07:09:10;;;;;;;12.13;10.40;;;2.60;99.90;;;;;;4876741;29;20417;-75
2021/12/11 07:11:43;;;;;;;13.57;11.17;;;2.60;99.90;;;;;;4876854;29;20464;-77
2021/12/11 07:14:10;;;;;;;14.97;11.50;;;2.70;99.90;;;;;;4874294;29;20465;-77
2021/12/11 07:16:36;;;;;;;13.80;11.60;;;2.70;99.90;;;;;;4876685;29;20842;-77
2021/12/11 07:19:06;;;;;;;14.77;11.10;;;2.70;99.90;;;;;;4876348;29;20460;-76
2021/12/11 07:21:32;;;;;;;13.90;10.93;;;2.70;99.90;;;;;;4876824;29;20945;-77
2021/12/11 07:23:58;;;;;;;11.33;10.03;;;2.70;99.90;;;;;;4875951;29;20431;-76
2021/12/11 07:26:31;;;;;;;12.23;10.23;;;2.70;99.90;;;;;;4876463;29;20420;-77
2021/12/11 07:29:02;;;;;;;17.27;10.50;;;2.70;99.90;;;;;;4876247;29;20932;-73
2021/12/11 07:31:28;;;;;;;13.47;11.80;;;2.70;99.90;;;;;;4876956;29;21117;-77
2021/12/11 07:33:55;;;;;;;13.20;9.10;;;2.80;99.90;;;;;;4876745;29;20424;-77
2021/12/11 07:36:22;;;;;;;14.00;10.40;;;2.70;99.90;;;;;;4875964;29;20894;-74
2021/12/11 07:38:48;;;;;;;14.60;13.00;;;2.70;99.90;;;;;;4874724;29;20453;-72
2021/12/11 07:41:17;;;;;;;13.00;11.60;;;2.80;99.90;;;;;;4876722;29;20430;-73
2021/12/11 07:43:44;;;;;;;15.27;11.53;;;2.80;99.90;;;;;;4875938;29;20438;-75
2021/12/11 07:46:13;;;;;;;14.33;10.50;;;2.80;99.90;;;;;;4867444;29;20810;-76
2021/12/11 07:48:40;;;;;;;12.37;9.87;;;2.80;99.90;;;;;;4874647;29;20438;-76
2021/12/11 07:51:07;;;;;;;17.23;11.00;;;2.80;99.90;;;;;;4877163;29;20451;-77
2021/12/11 07:53:33;;;;;;;16.33;11.90;;;2.80;99.90;;;;;;4876463;29;20930;-74
2021/12/11 07:55:59;;;;;;;17.43;12.57;;;2.80;99.90;;;;;;4876293;29;20428;-77
2021/12/11 07:58:25;;;;;;;15.40;11.07;;;2.70;99.90;;;;;;4876330;29;20826;-74
2021/12/11 08:00:50;;;;;;;15.70;12.33;;;2.80;99.90;;;;;;4876717;29;20440;-74
2021/12/11 08:03:18;;;;;;;17.57;12.07;;;2.80;99.90;;;;;;4875889;29;20188;-74
2021/12/11 08:05:47;;;;;;;18.47;12.77;;;2.80;99.90;;;;;;4879648;29;20619;-75
2021/12/11 08:08:13;;;;;;;18.80;12.93;;;2.90;99.90;;;;;;4879445;29;20478;-71
2021/12/11 08:10:43;;;;;;;18.43;13.27;;;2.90;99.90;;;;;;4871989;29;20959;-72
2021/12/11 08:13:09;;;;;;;19.60;13.60;;;2.80;99.90;;;;;;4876422;29;20227;-74
2021/12/11 08:15:35;;;;;;;16.10;11.83;;;2.80;99.90;;;;;;4879439;29;20496;-73
2021/12/11 08:18:02;;;;;;;18.70;11.67;;;2.90;99.90;;;;;;4879100;29;20996;-71
2021/12/11 08:20:31;;;;;;;19.47;13.80;;;2.80;99.90;;;;;;4879319;29;20428;-69
2021/12/11 08:22:58;;;;;;;18.20;12.90;;;2.80;99.90;;;;;;4878474;29;20424;-73
2021/12/11 08:25:26;;;;;;;21.50;14.67;;;2.80;99.90;;;;;;4879296;29;20400;-73
2021/12/11 08:27:53;;;;;;;18.60;14.13;;;2.80;99.90;;;;;;4879183;29;20415;-73
2021/12/11 08:30:20;;;;;;;17.47;14.13;;;2.80;99.90;;;;;;4866620;29;20448;-73
2021/12/11 08:32:45;;;;;;;20.00;13.60;;;2.80;99.90;;;;;;4877817;29;20464;-71
2021/12/11 08:35:13;;;;;;;18.63;14.00;;;2.90;99.90;;;;;;4878713;29;20924;-73
2021/12/11 08:37:41;;;;;;;19.10;14.07;;;2.90;99.90;;;;;;4879026;29;20194;-73
2021/12/11 08:40:11;;;;;;;19.30;12.93;;;2.80;99.90;;;;;;4878935;29;20952;-74
2021/12/11 08:42:39;;;;;;;21.17;14.20;;;2.80;99.90;;;;;;4878973;29;20437;-73
2021/12/11 08:45:10;;;;;;;20.10;13.50;;;2.90;99.90;;;;;;4877344;29;20429;-74
2021/12/11 08:47:40;;;;;;;21.77;16.20;;;2.90;99.90;;;;;;4878923;29;20423;-73
2021/12/11 08:50:10;;;;;;;25.70;15.40;;;2.90;99.90;;;;;;4879021;29;20426;-73
2021/12/11 08:52:40;;;;;;;21.87;15.53;;;2.90;99.90;;;;;;4879555;29;20496;-74
2021/12/11 08:55:10;;;;;;;21.77;14.47;;;3.00;99.90;;;;;;4880864;29;20509;-73
2021/12/11 08:57:39;;;;;;;21.73;14.20;;;3.00;99.90;;;;;;4879126;29;20782;-73
2021/12/11 09:00:33;;;;;;;21.23;15.53;;;3.00;99.90;;;;;;4877587;29;20449;-74
2021/12/11 09:03:16;;;;;;;21.70;15.17;;;3.00;99.90;;;;;;4877437;29;20436;-73
2021/12/11 09:06:16;;;;;;;18.53;14.00;;;3.10;99.90;;;;;;4878783;29;20436;-74
2021/12/11 09:08:44;;;;;;;21.17;14.13;;;3.10;99.90;;;;;;4864934;29;20916;-72
2021/12/11 09:11:19;;;;;;;20.03;12.80;;;3.10;99.90;;;;;;4877183;29;20453;-73
2021/12/11 09:14:17;;;;;;;17.07;12.07;;;3.20;99.90;;;;;;4877976;29;20526;-73
2021/12/11 09:16:45;;;;;;;15.80;12.43;;;3.30;99.90;;;;;;4863941;29;20429;-74
2021/12/11 09:19:20;;;;;;;18.97;13.37;;;3.20;99.90;;;;;;4877408;29;20559;-73
2021/12/11 09:22:14;;;;;;;16.10;12.90;;;3.20;99.90;;;;;;4878154;29;21098;-73
2021/12/11 09:25:03;;;;;;;18.53;10.80;;;3.30;99.90;;;;;;4861226;29;20452;-71
2021/12/11 09:27:38;;;;;;;15.83;11.13;;;3.30;99.90;;;;;;4878384;29;20427;-75
2021/12/11 09:30:06;;;;;;;13.83;11.20;;;3.40;99.90;;;;;;4877887;29;20412;-74
2021/12/11 09:32:43;;;;;;;13.17;10.53;;;3.40;99.90;;;;;;4877896;29;20482;-76
2021/12/11 09:35:24;;;;;;;13.13;11.10;;;3.50;99.90;;;;;;4878078;29;20388;-75
2021/12/11 09:37:53;;;;;;;16.30;12.13;;;3.50;99.90;;;;;;4877696;29;20501;-75
2021/12/11 09:40:39;;;;;;;13.20;10.80;;;3.60;99.90;;;;;;4878242;29;20387;-74
2021/12/11 09:43:04;;;;;;;12.13;9.20;;;3.60;99.90;;;;;;4838969;29;20420;-73
2021/12/11 09:45:40;;;;;;;9.90;8.93;;;3.70;99.90;;;;;;4878075;29;20495;-73
2021/12/11 09:48:15;;;;;;;13.03;8.97;;;3.70;99.90;;;;;;4877472;29;20191;-73
2021/12/11 09:50:54;;;;;;;8.93;8.00;;;3.70;99.90;;;;;;4877189;29;20419;-71
2021/12/11 09:53:24;;;;;;;12.03;9.07;;;3.80;99.90;;;;;;4876809;29;20477;-72
2021/12/11 09:55:50;;;;;;;20.90;9.50;;;3.80;99.90;;;;;;4877276;29;20433;-73
2021/12/11 09:58:21;;;;;;;12.37;8.80;;;3.80;99.90;;;;;;4877434;29;20514;-74
2021/12/11 10:00:57;;;;;;;12.60;8.93;;;3.80;99.90;;;;;;4877854;29;20982;-74
2021/12/11 10:03:26;;;;;;;12.37;9.30;;;3.90;99.90;;;;;;4876670;29;20501;-73
2021/12/11 10:06:26;;;;;;;12.10;7.47;;;3.90;99.90;;;;;;4877607;29;20545;-75
2021/12/11 10:09:09;;;;;;;11.00;8.90;;;3.90;99.90;;;;;;4877870;29;20848;-74
2021/12/11 10:11:36;;;;;;;10.53;9.10;;;4.00;99.90;;;;;;4877727;29;20433;-74
2021/12/11 10:14:08;;;;;;;9.37;7.60;;;3.90;99.90;;;;;;4876945;29;20437;-75
2021/12/11 10:16:43;;;;;;;10.93;8.57;;;4.00;99.90;;;;;;4875927;29;20425;-74
2021/12/11 10:19:15;;;;;;;8.63;7.40;;;4.00;99.90;;;;;;4877389;29;20465;-74
2021/12/11 10:21:56;;;;;;;13.20;7.67;;;4.10;99.90;;;;;;4876271;29;20827;-72
2021/12/11 10:24:26;;;;;;;8.37;7.40;;;4.20;99.90;;;;;;4876834;29;20794;-73
2021/12/11 10:26:53;;;;;;;7.83;6.87;;;4.20;99.90;;;;;;4876701;29;20418;-74
2021/12/11 10:29:19;;;;;;;13.03;8.47;;;4.20;99.90;;;;;;4876894;29;20424;-74
2021/12/11 10:31:55;;;;;;;8.27;7.47;;;4.20;99.90;;;;;;4876934;29;20481;-74
2021/12/11 10:34:24;;;;;;;8.87;7.77;;;4.20;99.90;;;;;;4876278;29;20434;-74
2021/12/11 10:36:56;;;;;;;8.97;7.70;;;4.30;99.90;;;;;;4876955;29;20428;-74
2021/12/11 10:39:21;;;;;;;8.60;7.10;;;4.30;99.90;;;;;;4876875;29;20467;-74
2021/12/11 10:41:47;;;;;;;9.10;7.50;;;4.40;99.90;;;;;;4877045;29;20841;-74
2021/12/11 10:44:18;;;;;;;10.20;8.43;;;4.40;99.90;;;;;;4875624;29;20181;-74
2021/12/11 10:46:49;;;;;;;9.10;7.33;;;4.40;99.90;;;;;;4876785;29;20182;-76
2021/12/11 10:49:16;;;;;;;10.97;7.10;;;4.40;99.90;;;;;;4877869;29;20794;-74
2021/12/11 10:51:52;;;;;;;7.47;6.70;;;4.30;99.90;;;;;;4877833;29;20818;-74
2021/12/11 10:54:19;;;;;;;12.90;5.93;;;4.30;99.90;;;;;;4876713;29;20865;-77
2021/12/11 10:56:47;;;;;;;7.10;5.90;;;4.30;99.90;;;;;;4876730;29;20426;-75
2021/12/11 10:59:18;;;;;;;8.73;6.40;;;4.30;99.90;;;;;;4877101;29;20469;-75
2021/12/11 11:01:54;;;;;;;9.80;6.93;;;4.30;99.90;;;;;;4877428;29;20448;-74
2021/12/11 11:04:42;;;;;;;7.77;6.97;;;4.30;99.90;;;;;;4876803;29;20424;-72
2021/12/11 11:07:09;;;;;;;7.83;7.07;;;4.30;99.90;;;;;;4876589;29;20433;-74
2021/12/11 11:09:36;;;;;;;10.27;7.10;;;4.30;99.90;;;;;;4877272;29;20849;-74
2021/12/11 11:12:05;;;;;;;7.73;6.90;;;4.30;99.90;;;;;;4877001;29;20445;-76
2021/12/11 11:14:32;;;;;;;8.00;7.20;;;4.30;99.90;;;;;;4874847;29;20875;-74
2021/12/11 11:17:02;;;;;;;8.20;6.63;;;4.20;99.90;;;;;;4876389;29;20846;-75
2021/12/11 11:19:30;;;;;;;11.87;7.27;;;4.20;99.90;;;;;;4875278;29;20477;-75
2021/12/11 11:22:01;;;;;;;10.30;7.93;;;4.30;99.90;;;;;;4876037;29;20943;-76
2021/12/11 11:24:31;;;;;;;9.17;6.33;;;4.20;99.90;;;;;;4875679;29;20429;-75
2021/12/11 11:26:59;;;;;;;13.97;7.30;;;4.30;99.90;;;;;;4876908;29;20439;-73
2021/12/11 11:29:27;;;;;;;9.40;8.50;;;4.30;99.90;;;;;;4877016;29;20407;-76
2021/12/11 11:31:56;;;;;;;10.30;8.63;;;4.30;99.90;;;;;;4876513;29;20862;-75
2021/12/11 11:34:26;;;;;;;11.50;8.77;;;4.40;99.90;;;;;;4875826;29;20844;-73
2021/12/11 11:36:56;;;;;;;13.63;8.60;;;4.40;99.90;;;;;;4875955;29;20422;-74
2021/12/11 11:39:25;;;;;;;7.73;5.80;;;4.40;99.90;;;;;;4879752;29;20468;-74
2021/12/11 11:41:58;;;;;;;8.97;8.07;;;4.40;99.90;;;;;;4880268;29;20502;-75
2021/12/11 11:44:27;;;;;;;6.73;5.70;;;4.40;99.90;;;;;;4879612;29;20790;-74
2021/12/11 11:46:55;;;;;;;6.20;5.60;;;4.30;99.90;;;;;;4879817;29;20958;-75
2021/12/11 11:49:23;;;;;;;8.00;5.80;;;4.30;99.90;;;;;;4879663;29;20452;-73
2021/12/11 11:51:52;;;;;;;8.17;7.33;;;4.30;99.90;;;;;;4880060;29;20442;-75
2021/12/11 11:54:21;;;;;;;12.70;6.53;;;4.30;99.90;;;;;;4879401;29;20421;-76
2021/12/11 11:56:53;;;;;;;7.73;7.00;;;4.30;99.90;;;;;;4879547;29;20430;-75
2021/12/11 11:59:18;;;;;;;8.93;7.93;;;4.40;99.90;;;;;;4880448;29;20691;-75
2021/12/11 12:01:55;;;;;;;9.57;6.00;;;4.40;99.90;;;;;;4880902;29;20956;-76
2021/12/11 12:04:21;;;;;;;7.70;7.00;;;4.30;99.90;;;;;;4879426;29;20184;-73
2021/12/11 12:06:54;;;;;;;7.97;6.63;;;4.30;99.90;;;;;;4879828;29;20422;-74
2021/12/11 12:09:22;;;;;;;8.33;7.30;;;4.30;99.90;;;;;;4879928;29;20457;-72
2021/12/11 12:11:48;;;;;;;8.10;6.53;;;4.30;99.90;;;;;;4879347;29;20473;-75
2021/12/11 12:14:18;;;;;;;10.27;7.77;;;4.30;99.90;;;;;;4880406;29;20455;-75
2021/12/11 12:16:48;;;;;;;12.27;8.77;;;4.40;99.90;;;;;;4879777;29;20190;-75
2021/12/11 12:19:15;;;;;;;9.47;7.57;;;4.40;99.90;;;;;;4879591;29;20461;-74
2021/12/11 12:21:44;;;;;;;9.10;7.40;;;4.50;99.90;;;;;;4879816;29;20445;-73
2021/12/11 12:24:10;;;;;;;8.90;7.90;;;4.50;99.90;;;;;;4878894;29;20461;-78
2021/12/11 12:26:37;;;;;;;13.40;9.20;;;4.50;99.90;;;;;;4879437;29;20417;-77
2021/12/11 12:29:06;;;;;;;11.37;8.50;;;4.50;99.90;;;;;;4878984;29;20396;-75
2021/12/11 12:31:45;;;;;;;8.20;7.17;;;4.60;99.90;;;;;;4878719;29;20454;-77
2021/12/11 12:34:13;;;;;;;8.77;7.00;;;4.60;99.90;;;;;;4878826;29;20513;-75
2021/12/11 12:36:41;;;;;;;9.07;7.33;;;4.50;99.90;;;;;;4879273;29;20433;-75
2021/12/11 12:39:07;;;;;;;11.80;8.30;;;4.50;99.90;;;;;;4879030;29;20478;-76
2021/12/11 12:41:44;;;;;;;12.40;8.70;;;4.60;99.90;;;;;;4879255;29;20473;-75
2021/12/11 12:44:17;;;;;;;8.40;7.50;;;4.60;99.90;;;;;;4878409;29;20431;-76
2021/12/11 12:46:52;;;;;;;9.17;6.90;;;4.60;99.90;;;;;;4883632;29;20426;-75
2021/12/11 12:49:19;;;;;;;8.37;7.43;;;4.70;99.90;;;;;;4898176;29;20428;-74
2021/12/11 12:51:45;;;;;;;8.67;6.13;;;4.60;99.90;;;;;;4892556;29;20532;-75
2021/12/11 12:54:13;;;;;;;8.80;6.87;;;4.60;99.90;;;;;;4878454;29;20414;-75
2021/12/11 12:56:44;;;;;;;9.20;7.60;;;4.60;99.90;;;;;;4878768;29;20432;-75
2021/12/11 12:59:18;;;;;;;7.73;6.90;;;4.70;99.90;;;;;;4878671;29;20441;-77
2021/12/11 13:02:01;;;;;;;7.30;5.97;;;4.70;99.90;;;;;;4878799;29;20461;-74
2021/12/11 13:04:32;;;;;;;6.90;6.00;;;4.70;99.90;;;;;;4878374;29;20443;-75
2021/12/11 13:07:02;;;;;;;9.07;6.97;;;4.70;99.90;;;;;;4878705;29;20425;-75
2021/12/11 13:09:35;;;;;;;10.43;5.87;;;4.70;99.90;;;;;;4878399;29;20436;-75
2021/12/11 13:12:10;;;;;;;8.60;6.77;;;4.50;99.90;;;;;;4878313;29;20464;-76
2021/12/11 13:14:38;;;;;;;8.70;6.73;;;4.60;99.90;;;;;;4878346;29;20436;-76
2021/12/11 13:17:16;;;;;;;10.70;7.00;;;4.60;99.90;;;;;;4877939;29;20426;-75
2021/12/11 13:19:48;;;;;;;11.10;6.90;;;4.60;99.90;;;;;;4878003;29;20474;-74
2021/12/11 13:22:29;;;;;;;9.40;8.03;;;4.60;99.90;;;;;;4878334;29;20494;-75
2021/12/11 13:25:14;;;;;;;12.70;8.43;;;4.50;99.90;;;;;;4877786;29;20430;-74
2021/12/11 13:27:42;;;;;;;13.17;8.23;;;4.60;99.90;;;;;;4878201;29;20426;-72
2021/12/11 13:30:14;;;;;;;9.40;7.07;;;4.60;99.90;;;;;;4878338;29;20415;-75
2021/12/11 13:32:40;;;;;;;10.30;8.10;;;4.60;99.90;;;;;;4878237;29;20440;-76
2021/12/11 13:35:12;;;;;;;13.90;10.47;;;4.60;99.90;;;;;;4877696;29;20522;-75
2021/12/11 13:37:38;;;;;;;8.30;7.13;;;4.60;99.90;;;;;;4878502;29;20430;-77
2021/12/11 13:40:09;;;;;;;9.77;8.03;;;4.60;99.90;;;;;;4877979;29;20984;-77
2021/12/11 13:42:37;;;;;;;7.63;6.83;;;4.60;99.90;;;;;;4878396;29;20955;-75
2021/12/11 13:45:18;;;;;;;9.50;7.63;;;4.60;99.90;;;;;;4877726;29;20410;-76
2021/12/11 13:47:44;;;;;;;11.20;6.73;;;4.60;99.90;;;;;;4874327;29;20542;-75
2021/12/11 13:50:17;;;;;;;9.47;5.53;;;4.60;99.90;;;;;;4885784;29;20400;-75
2021/12/11 13:52:42;;;;;;;7.17;6.47;;;4.50;99.90;;;;;;4877972;29;20451;-75
2021/12/11 13:55:09;;;;;;;6.13;5.27;;;4.50;99.90;;;;;;4877883;29;20455;-75
2021/12/11 13:57:36;;;;;;;7.50;6.07;;;4.50;99.90;;;;;;4877917;29;20653;-76
2021/12/11 14:00:06;;;;;;;6.27;5.67;;;4.60;99.90;;;;;;4877927;29;20887;-77
2021/12/11 14:02:32;;;;;;;8.33;5.87;;;4.50;99.90;;;;;;4877278;29;20944;-74
2021/12/11 14:04:58;;;;;;;5.70;4.80;;;4.60;99.90;;;;;;4877278;29;20425;-74
2021/12/11 14:07:27;;;;;;;6.80;5.67;;;4.50;99.90;;;;;;4877696;29;20186;-76
2021/12/11 14:10:02;;;;;;;9.23;6.17;;;4.50;99.90;;;;;;4877305;29;20181;-75
2021/12/11 14:12:30;;;;;;;7.10;6.40;;;4.40;99.90;;;;;;4877811;29;20457;-77
2021/12/11 14:14:59;;;;;;;13.53;6.80;;;4.50;99.90;;;;;;4875929;29;20551;-77
2021/12/11 14:17:26;;;;;;;10.37;7.43;;;4.50;99.90;;;;;;4877719;29;20432;-74
2021/12/11 14:19:51;;;;;;;10.20;8.00;;;4.50;99.90;;;;;;4877143;29;20524;-75
2021/12/11 14:22:19;;;;;;;10.13;7.50;;;4.50;99.90;;;;;;4877503;29;20972;-74
2021/12/11 14:24:46;;;;;;;10.20;7.33;;;4.40;99.90;;;;;;4877061;29;20182;-75
2021/12/11 14:27:14;;;;;;;9.90;7.10;;;4.40;99.90;;;;;;4877265;29;20430;-75
2021/12/11 14:29:45;;;;;;;10.67;7.20;;;4.40;99.90;;;;;;4877326;29;20428;-73
2021/12/11 14:32:13;;;;;;;9.20;6.43;;;4.40;99.90;;;;;;4877219;29;20967;-74
2021/12/11 14:34:38;;;;;;;8.50;7.33;;;4.40;99.90;;;;;;4876343;29;20468;-75
2021/12/11 14:37:04;;;;;;;6.80;6.07;;;4.40;99.90;;;;;;4877080;29;20403;-75
2021/12/11 14:39:30;;;;;;;8.00;7.17;;;4.40;99.90;;;;;;4877076;29;20720;-76
2021/12/11 14:41:56;;;;;;;8.87;7.10;;;4.40;99.90;;;;;;4877026;29;20212;-75
2021/12/11 14:44:28;;;;;;;11.83;8.70;;;4.30;99.90;;;;;;4877678;29;20178;-73
2021/12/11 14:46:57;;;;;;;8.80;6.63;;;4.30;99.90;;;;;;4877565;29;20185;-76
2021/12/11 14:49:25;;;;;;;9.90;7.23;;;4.30;99.90;;;;;;4877183;29;20435;-76
2021/12/11 14:51:51;;;;;;;13.60;8.40;;;4.30;99.90;;;;;;4877162;29;20525;-75
2021/12/11 14:54:17;;;;;;;8.17;6.20;;;4.30;99.90;;;;;;4876581;29;20443;-75
2021/12/11 14:56:47;;;;;;;6.37;5.73;;;4.30;99.90;;;;;;4876504;29;20416;-75
2021/12/11 14:59:24;;;;;;;11.73;7.70;;;4.20;99.90;;;;;;4876996;29;20275;-76
2021/12/11 15:01:54;;;;;;;14.90;11.93;;;4.20;99.90;;;;;;4876929;29;20960;-75
2021/12/11 15:04:25;;;;;;;13.60;11.27;;;4.20;99.90;;;;;;4875147;29;20430;-73
2021/12/11 15:06:51;;;;;;;8.83;7.90;;;4.20;99.90;;;;;;4876440;29;20426;-75
2021/12/11 15:09:17;;;;;;;10.50;8.10;;;4.20;99.90;;;;;;4878784;29;20430;-75
2021/12/11 15:11:45;;;;;;;8.00;6.50;;;4.10;99.90;;;;;;4880028;29;20212;-75
2021/12/11 15:14:16;;;;;;;11.13;6.53;;;4.10;99.90;;;;;;4878041;29;20184;-74
2021/12/11 15:16:45;;;;;;;7.73;6.50;;;4.10;99.90;;;;;;4879043;29;20940;-73
2021/12/11 15:19:11;;;;;;;6.30;5.67;;;4.10;99.90;;;;;;4880458;29;20514;-75
2021/12/11 15:21:38;;;;;;;8.93;5.50;;;4.00;99.90;;;;;;4881007;29;21013;-75
2021/12/11 15:24:05;;;;;;;10.93;6.13;;;4.00;99.90;;;;;;4880062;29;20443;-75
2021/12/11 15:26:34;;;;;;;6.10;5.60;;;3.90;99.90;;;;;;4880506;29;20431;-77
2021/12/11 15:29:01;;;;;;;9.10;5.90;;;3.90;99.90;;;;;;4880354;29;20782;-75
2021/12/11 15:31:31;;;;;;;5.93;5.20;;;3.80;99.90;;;;;;4879999;29;20513;-75
2021/12/11 15:33:59;;;;;;;8.00;6.53;;;3.80;99.90;;;;;;4879726;29;20431;-75
2021/12/11 15:36:28;;;;;;;7.57;5.43;;;3.70;99.90;;;;;;4880160;29;20447;-75
2021/12/11 15:38:59;;;;;;;7.43;6.10;;;3.70;99.90;;;;;;4880109;29;20473;-76
2021/12/11 15:41:26;;;;;;;6.60;6.00;;;3.60;99.90;;;;;;4872028;29;20469;-74
2021/12/11 15:43:53;;;;;;;7.07;5.70;;;3.60;99.90;;;;;;4887025;29;20480;-75
2021/12/11 15:46:22;;;;;;;5.43;4.93;;;3.50;99.90;;;;;;4879573;29;20425;-75
2021/12/11 15:48:50;;;;;;;8.00;6.10;;;3.50;99.90;;;;;;4883294;29;20451;-79
2021/12/11 15:51:19;;;;;;;13.47;6.83;;;3.50;99.90;;;;;;4880248;29;20517;-78
2021/12/11 15:53:45;;;;;;;6.63;5.73;;;3.40;99.90;;;;;;4879901;29;20432;-77
2021/12/11 15:56:11;;;;;;;8.10;6.40;;;3.30;99.90;;;;;;4880693;29;20470;-78
2021/12/11 15:58:43;;;;;;;9.80;6.27;;;3.20;99.90;;;;;;4880735;29;20469;-78
2021/12/11 16:01:13;;;;;;;7.80;5.50;;;3.20;99.90;;;;;;4880522;29;20209;-78
2021/12/11 16:03:40;;;;;;;7.67;6.20;;;3.10;99.90;;;;;;4879812;29;20429;-78
2021/12/11 16:06:06;;;;;;;8.50;5.80;;;3.20;99.90;;;;;;4880614;29;20947;-78
2021/12/11 16:08:34;;;;;;;8.70;6.83;;;3.20;99.90;;;;;;4872139;29;20453;-78
2021/12/11 16:11:02;;;;;;;8.63;6.70;;;3.20;99.90;;;;;;4880308;29;20461;-76
2021/12/11 16:13:27;;;;;;;10.17;7.80;;;3.20;99.90;;;;;;4880198;29;20939;-78
2021/12/11 16:15:54;;;;;;;8.47;6.27;;;3.20;99.90;;;;;;4882024;29;20418;-78
2021/12/11 16:18:21;;;;;;;8.00;6.27;;;3.20;99.90;;;;;;4885075;29;20360;-75
2021/12/11 16:20:52;;;;;;;10.27;7.00;;;3.20;99.90;;;;;;4880947;29;20396;-77
2021/12/11 16:23:21;;;;;;;8.40;7.40;;;3.20;99.90;;;;;;4880497;29;20447;-78
2021/12/11 16:25:46;;;;;;;8.50;6.80;;;3.20;99.90;;;;;;4875544;29;20448;-78
2021/12/11 16:28:15;;;;;;;12.70;6.40;;;3.20;99.90;;;;;;4885692;29;20407;-78
2021/12/11 16:30:45;;;;;;;11.93;6.97;;;3.20;99.90;;;;;;4880987;29;20558;-76
2021/12/11 16:33:12;;;;;;;8.87;7.17;;;3.30;99.90;;;;;;4880290;29;20443;-78
2021/12/11 16:35:37;;;;;;;10.37;7.00;;;3.30;99.90;;;;;;4881640;29;20785;-78
2021/12/11 16:38:06;;;;;;;11.47;7.83;;;3.30;99.90;;;;;;4880770;29;20413;-78
2021/12/11 16:40:37;;;;;;;9.27;7.37;;;3.30;99.90;;;;;;4882365;29;20209;-76
2021/12/11 16:43:11;;;;;;;9.90;7.60;;;3.30;99.90;;;;;;4880462;29;21014;-78
2021/12/11 16:45:41;;;;;;;12.07;8.47;;;3.30;99.90;;;;;;4880143;29;20492;-78
2021/12/11 16:48:09;;;;;;;12.93;8.20;;;3.30;99.90;;;;;;4878645;29;20422;-77
2021/12/11 16:50:37;;;;;;;10.93;7.93;;;3.30;99.90;;;;;;4868048;29;20775;-78
2021/12/11 16:53:04;;;;;;;9.93;7.30;;;3.30;99.90;;;;;;4876062;29;20936;-77
2021/12/11 16:55:30;;;;;;;8.10;6.43;;;3.40;99.90;;;;;;4874743;29;20428;-79
2021/12/11 16:57:56;;;;;;;13.50;9.67;;;3.40;99.90;;;;;;4882087;29;20421;-78
2021/12/11 17:00:26;;;;;;;11.10;7.97;;;3.30;99.90;;;;;;4882608;29;20410;-78
2021/12/11 17:02:52;;;;;;;11.03;7.60;;;3.40;99.90;;;;;;4879574;29;20442;-78
2021/12/11 17:05:19;;;;;;;10.73;7.77;;;3.40;99.90;;;;;;4879952;29;20385;-78
2021/12/11 17:07:44;;;;;;;15.20;8.00;;;3.40;99.90;;;;;;4876381;29;20433;-78
2021/12/11 17:10:13;;;;;;;10.00;8.07;;;3.40;99.90;;;;;;4859153;29;20478;-78
2021/12/11 17:12:39;;;;;;;14.90;9.20;;;3.40;99.90;;;;;;4877149;29;20220;-76
2021/12/11 17:15:07;;;;;;;12.17;9.47;;;3.40;99.90;;;;;;4882969;29;20490;-77
2021/12/11 17:17:35;;;;;;;13.03;9.37;;;3.40;99.90;;;;;;4881031;29;20700;-78
2021/12/11 17:20:01;;;;;;;10.63;7.73;;;3.50;99.90;;;;;;4879087;29;20484;-77
2021/12/11 17:22:29;;;;;;;12.23;8.60;;;3.50;99.90;;;;;;4866977;29;20470;-78
2021/12/11 17:24:54;;;;;;;11.40;8.30;;;3.50;99.90;;;;;;4878427;29;20538;-77
2021/12/11 17:27:22;;;;;;;11.90;8.37;;;3.50;99.90;;;;;;4879164;29;21042;-78
2021/12/11 17:29:49;;;;;;;12.00;7.73;;;3.60;99.90;;;;;;4879902;29;20204;-77
2021/12/11 17:32:16;;;;;;;10.00;7.63;;;3.60;99.90;;;;;;4878208;29;20559;-75